Tuesday, June 28, 2016, 5:36 AM EDT

KDYL, Doylestown Airport

Location: Doylestown, PA, United States Lat: 40.333
Local Time: 5:36 AM EDT ( 9:36 GMT) Lon: -75.117
Time Zone: US/Eastern Elev: 393 ft

Show me the last for .
Show Decoded

2016-06-28 04:54 METAR KDYL 280854Z AUTO 00000KT 10SM BKN006 OVC022 20/19 A2995 RMK AO2 CIG
                 004V010 SLP136 T02000194 58003 =
2016-06-28 04:15 METAR KDYL 280815Z AUTO VRB03KT 10SM OVC006 20/19 A2995 RMK AO2 CIG 003V010
                 T02000194 =
2016-06-28 03:54 METAR KDYL 280754Z AUTO 00000KT 10SM OVC004 20/20 A2995 RMK AO2 CIG 003V008
                 SLP137 T02000200 =
2016-06-28 03:40 METAR KDYL 280740Z AUTO 00000KT 10SM OVC004 20/20 A2995 RMK AO2 T02000200 =
2016-06-28 02:54 METAR KDYL 280654Z AUTO 16003KT 10SM BKN006 OVC014 20/19 A2996 RMK AO2 CIG
                 003V010 SLP138 T02000194 =
2016-06-28 02:27 METAR KDYL 280627Z AUTO 00000KT 10SM BKN007 OVC016 20/19 A2996 RMK AO2 CIG
                 004V008 T02000194 =
2016-06-28 02:16 METAR KDYL 280616Z AUTO 00000KT 10SM SCT007 OVC016 20/19 A2996 RMK AO2 T02000194
                 =
2016-06-28 02:03 METAR KDYL 280603Z AUTO 17003KT 10SM SCT010 OVC016 20/19 A2997 RMK AO2 T02000194
                 =
2016-06-28 01:54 METAR KDYL 280554Z AUTO 17004KT 10SM BKN010 OVC018 20/19 A2997 RMK AO2 CIG
                 009V013 SLP142 60007 T02000194 10211 20200 58010 =
2016-06-28 01:14 METAR KDYL 280514Z AUTO 18003KT 10SM BKN012 20/20 A2998 RMK AO2 T02000200 =
2016-06-28 00:54 METAR KDYL 280454Z AUTO 17003KT 10SM SCT012 20/20 A2998 RMK AO2 SLP147 T02000200
                 402940144 =
2016-06-28 00:03 METAR KDYL 280403Z AUTO 16004KT 10SM FEW009 BKN070 20/20 A2999 RMK AO2 T02000200
                 =
2016-06-27 23:54 METAR KDYL 280354Z AUTO 17003KT 10SM FEW048 OVC070 21/20 A2999 RMK AO2 RAE01
                 SLP151 P0000 T02060200 =
2016-06-27 22:54 METAR KDYL 280254Z AUTO 17006KT 10SM -RA OVC040 21/20 A3000 RMK AO2 RAE0159B49
                 SLP153 P0000 60007 T02060200 50002 =
2016-06-27 21:54 METAR KDYL 280154Z AUTO 00000KT 10SM -RA BKN040 OVC050 21/20 A3001 RMK AO2 RAB21
                 SLP156 P0000 T02060200 =
2016-06-27 20:54 METAR KDYL 280054Z AUTO 15004KT 10SM FEW037 SCT047 OVC060 21/20 A2999 RMK AO2
                 RAE36 SLP153 P0007 T02060200 =
2016-06-27 19:54 METAR KDYL 272354Z AUTO 20003KT 5SM -RA BR BKN060 OVC075 21/20 A2999 RMK AO2
                 RAB20 SLP152 P0008 60010 T02110200 10294 20211 53004 =
2016-06-27 18:54 METAR KDYL 272254Z AUTO 00000KT 10SM OVC034 23/21 A2998 RMK AO2 RAE24 SLP149
                 P0001 T02330211 =
2016-06-27 17:54 METAR KDYL 272154Z AUTO 17003KT 10SM -RA OVC045 23/19 A2997 RMK AO2 RAB29 SLP146
                 P0001 T02330194 =
2016-06-27 16:54 METAR KDYL 272054Z AUTO 19005KT 10SM BKN047 OVC075 27/16 A2998 RMK AO2 SLP148
                 T02670156 56014 =
2016-06-27 15:54 METAR KDYL 271954Z AUTO VRB05KT 10SM CLR 28/13 A2998 RMK AO2 SLP147 T02780128 =
2016-06-27 14:54 METAR KDYL 271854Z AUTO 18009G16KT 140V210 10SM CLR 28/11 A2999 RMK AO2 SLP150
                 T02780111 =
2016-06-27 13:54 METAR KDYL 271754Z AUTO 21008G15KT 160V240 10SM CLR 28/11 A3002 RMK AO2 SLP161
                 T02780111 10283 20183 58018 =
2016-06-27 12:54 METAR KDYL 271654Z AUTO 21008KT 10SM CLR 27/11 A3005 RMK AO2 SLP170 T02670111 =
2016-06-27 11:54 METAR KDYL 271554Z AUTO VRB05KT 10SM CLR 26/13 A3006 RMK AO2 SLP175 T02610128 =
2016-06-27 10:54 METAR KDYL 271454Z AUTO VRB06KT 10SM CLR 24/12 A3007 RMK AO2 SLP179 T02440122
                 58011 =
2016-06-27 09:54 METAR KDYL 271354Z AUTO 20008KT 160V230 10SM CLR 23/15 A3009 RMK AO2 SLP184
                 T02280150 =
2016-06-27 08:54 METAR KDYL 271254Z AUTO VRB05KT 10SM CLR 21/16 A3011 RMK AO2 SLP191 T02110161 =
2016-06-27 07:54 METAR KDYL 271154Z AUTO 20005KT 10SM CLR 18/16 A3011 RMK AO2 SLP190 T01830156
                 10183 20144 55004 =
2016-06-27 06:54 METAR KDYL 271054Z AUTO VRB03KT 10SM CLR 17/15 A3010 RMK AO2 SLP189 T01670150 =
2016-06-27 05:54 METAR KDYL 270954Z AUTO 00000KT 10SM CLR 15/14 A3011 RMK AO2 SLP193 T01500139 =

Support USWX by starting your Amazon purchase here.